sensor_id;sensor_type;location;lat;lon;timestamp;P1;durP1;ratioP1;P2;durP2;ratioP2
5900;SDS011;2976;49.764;9.796;2022-10-23T00:01:18;13.67;;;5.80;;
5900;SDS011;2976;49.764;9.796;2022-10-23T00:03:54;11.33;;;6.50;;
5900;SDS011;2976;49.764;9.796;2022-10-23T00:06:26;23.07;;;7.50;;
5900;SDS011;2976;49.764;9.796;2022-10-23T00:08:52;10.50;;;7.40;;
5900;SDS011;2976;49.764;9.796;2022-10-23T00:11:19;24.77;;;7.33;;
5900;SDS011;2976;49.764;9.796;2022-10-23T00:13:54;23.90;;;6.80;;
5900;SDS011;2976;49.764;9.796;2022-10-23T00:16:22;14.33;;;7.47;;
5900;SDS011;2976;49.764;9.796;2022-10-23T00:18:47;10.17;;;7.50;;
5900;SDS011;2976;49.764;9.796;2022-10-23T00:21:14;12.53;;;7.63;;
5900;SDS011;2976;49.764;9.796;2022-10-23T00:23:40;15.13;;;6.93;;
5900;SDS011;2976;49.764;9.796;2022-10-23T00:26:07;11.87;;;6.50;;
5900;SDS011;2976;49.764;9.796;2022-10-23T00:28:35;13.23;;;6.70;;
5900;SDS011;2976;49.764;9.796;2022-10-23T00:31:01;20.23;;;7.50;;
5900;SDS011;2976;49.764;9.796;2022-10-23T00:33:30;12.57;;;6.10;;
5900;SDS011;2976;49.764;9.796;2022-10-23T00:35:56;10.90;;;5.60;;
5900;SDS011;2976;49.764;9.796;2022-10-23T00:38:22;13.90;;;7.43;;
5900;SDS011;2976;49.764;9.796;2022-10-23T00:40:47;10.10;;;6.80;;
5900;SDS011;2976;49.764;9.796;2022-10-23T00:43:17;12.63;;;7.57;;
5900;SDS011;2976;49.764;9.796;2022-10-23T00:45:48;14.37;;;8.00;;
5900;SDS011;2976;49.764;9.796;2022-10-23T00:48:13;18.53;;;7.60;;
5900;SDS011;2976;49.764;9.796;2022-10-23T00:50:39;13.23;;;6.90;;
5900;SDS011;2976;49.764;9.796;2022-10-23T00:53:05;13.10;;;5.97;;
5900;SDS011;2976;49.764;9.796;2022-10-23T00:55:32;10.10;;;5.90;;
5900;SDS011;2976;49.764;9.796;2022-10-23T00:57:59;9.93;;;6.50;;
5900;SDS011;2976;49.764;9.796;2022-10-23T01:00:26;14.60;;;6.30;;
5900;SDS011;2976;49.764;9.796;2022-10-23T01:02:55;24.63;;;6.77;;
5900;SDS011;2976;49.764;9.796;2022-10-23T01:05:24;14.10;;;5.90;;
5900;SDS011;2976;49.764;9.796;2022-10-23T01:07:55;9.00;;;5.07;;
5900;SDS011;2976;49.764;9.796;2022-10-23T01:10:30;19.03;;;6.37;;
5900;SDS011;2976;49.764;9.796;2022-10-23T01:13:16;12.20;;;5.50;;
5900;SDS011;2976;49.764;9.796;2022-10-23T01:15:56;11.30;;;5.60;;
5900;SDS011;2976;49.764;9.796;2022-10-23T01:18:30;15.73;;;6.47;;
5900;SDS011;2976;49.764;9.796;2022-10-23T01:21:12;8.10;;;5.00;;
5900;SDS011;2976;49.764;9.796;2022-10-23T01:32:18;6.80;;;5.37;;
5900;SDS011;2976;49.764;9.796;2022-10-23T01:34:54;8.30;;;5.50;;
5900;SDS011;2976;49.764;9.796;2022-10-23T01:37:34;10.20;;;5.60;;
5900;SDS011;2976;49.764;9.796;2022-10-23T01:43:00;7.50;;;5.27;;
5900;SDS011;2976;49.764;9.796;2022-10-23T01:45:37;16.47;;;5.00;;
5900;SDS011;2976;49.764;9.796;2022-10-23T01:48:06;42.40;;;6.37;;
5900;SDS011;2976;49.764;9.796;2022-10-23T01:50:35;42.47;;;6.90;;
5900;SDS011;2976;49.764;9.796;2022-10-23T01:53:03;27.07;;;6.40;;
5900;SDS011;2976;49.764;9.796;2022-10-23T01:55:30;15.53;;;6.10;;
5900;SDS011;2976;49.764;9.796;2022-10-23T01:57:57;7.10;;;4.70;;
5900;SDS011;2976;49.764;9.796;2022-10-23T02:00:26;14.87;;;4.77;;
5900;SDS011;2976;49.764;9.796;2022-10-23T02:02:52;5.00;;;3.93;;
5900;SDS011;2976;49.764;9.796;2022-10-23T02:05:21;6.23;;;3.00;;
5900;SDS011;2976;49.764;9.796;2022-10-23T02:07:50;3.93;;;3.53;;
5900;SDS011;2976;49.764;9.796;2022-10-23T02:10:16;4.80;;;3.70;;
5900;SDS011;2976;49.764;9.796;2022-10-23T02:13:03;8.10;;;4.30;;
5900;SDS011;2976;49.764;9.796;2022-10-23T02:15:37;5.40;;;4.13;;
5900;SDS011;2976;49.764;9.796;2022-10-23T02:21:04;7.10;;;3.97;;
5900;SDS011;2976;49.764;9.796;2022-10-23T02:26:13;5.70;;;4.20;;
5900;SDS011;2976;49.764;9.796;2022-10-23T02:28:53;79.83;;;7.40;;
5900;SDS011;2976;49.764;9.796;2022-10-23T02:31:22;38.90;;;5.80;;
5900;SDS011;2976;49.764;9.796;2022-10-23T02:33:48;8.03;;;5.27;;
5900;SDS011;2976;49.764;9.796;2022-10-23T02:36:14;8.40;;;4.50;;
5900;SDS011;2976;49.764;9.796;2022-10-23T02:38:42;10.63;;;5.60;;
5900;SDS011;2976;49.764;9.796;2022-10-23T02:44:11;9.70;;;5.07;;
5900;SDS011;2976;49.764;9.796;2022-10-23T02:49:19;11.37;;;5.77;;
5900;SDS011;2976;49.764;9.796;2022-10-23T02:52:01;11.57;;;6.20;;
5900;SDS011;2976;49.764;9.796;2022-10-23T02:57:25;8.60;;;6.30;;
5900;SDS011;2976;49.764;9.796;2022-10-23T03:00:03;13.53;;;6.50;;
5900;SDS011;2976;49.764;9.796;2022-10-23T03:02:34;11.60;;;6.27;;
5900;SDS011;2976;49.764;9.796;2022-10-23T03:05:08;12.77;;;6.53;;
5900;SDS011;2976;49.764;9.796;2022-10-23T03:07:37;10.70;;;5.43;;
5900;SDS011;2976;49.764;9.796;2022-10-23T03:10:03;21.73;;;6.03;;
5900;SDS011;2976;49.764;9.796;2022-10-23T03:12:30;13.30;;;5.20;;
5900;SDS011;2976;49.764;9.796;2022-10-23T03:14:55;10.87;;;5.43;;
5900;SDS011;2976;49.764;9.796;2022-10-23T03:17:21;12.20;;;5.50;;
5900;SDS011;2976;49.764;9.796;2022-10-23T03:19:47;9.80;;;5.80;;
5900;SDS011;2976;49.764;9.796;2022-10-23T03:22:12;13.20;;;6.73;;
5900;SDS011;2976;49.764;9.796;2022-10-23T03:24:38;13.73;;;6.60;;
5900;SDS011;2976;49.764;9.796;2022-10-23T03:27:03;22.60;;;9.37;;
5900;SDS011;2976;49.764;9.796;2022-10-23T03:29:29;30.40;;;12.43;;
5900;SDS011;2976;49.764;9.796;2022-10-23T03:31:54;13.80;;;6.30;;
5900;SDS011;2976;49.764;9.796;2022-10-23T03:34:20;11.10;;;6.30;;
5900;SDS011;2976;49.764;9.796;2022-10-23T03:36:46;13.20;;;5.40;;
5900;SDS011;2976;49.764;9.796;2022-10-23T03:39:11;20.77;;;5.67;;
5900;SDS011;2976;49.764;9.796;2022-10-23T03:41:37;13.23;;;5.97;;
5900;SDS011;2976;49.764;9.796;2022-10-23T03:44:02;7.87;;;5.57;;
5900;SDS011;2976;49.764;9.796;2022-10-23T03:46:28;14.73;;;5.60;;
5900;SDS011;2976;49.764;9.796;2022-10-23T03:48:54;12.10;;;6.83;;
5900;SDS011;2976;49.764;9.796;2022-10-23T03:51:22;21.30;;;9.40;;
5900;SDS011;2976;49.764;9.796;2022-10-23T03:53:48;9.13;;;5.90;;
5900;SDS011;2976;49.764;9.796;2022-10-23T03:56:13;13.53;;;7.10;;
5900;SDS011;2976;49.764;9.796;2022-10-23T03:58:39;14.90;;;6.97;;
5900;SDS011;2976;49.764;9.796;2022-10-23T04:01:05;12.17;;;6.10;;
5900;SDS011;2976;49.764;9.796;2022-10-23T04:03:30;9.10;;;5.37;;
5900;SDS011;2976;49.764;9.796;2022-10-23T04:05:56;7.90;;;5.27;;
5900;SDS011;2976;49.764;9.796;2022-10-23T04:08:21;8.80;;;4.43;;
5900;SDS011;2976;49.764;9.796;2022-10-23T04:10:47;4.93;;;3.87;;
5900;SDS011;2976;49.764;9.796;2022-10-23T04:13:12;11.73;;;4.23;;
5900;SDS011;2976;49.764;9.796;2022-10-23T04:15:38;10.43;;;5.33;;
5900;SDS011;2976;49.764;9.796;2022-10-23T04:18:03;9.73;;;5.00;;
5900;SDS011;2976;49.764;9.796;2022-10-23T04:20:29;9.60;;;4.70;;
5900;SDS011;2976;49.764;9.796;2022-10-23T04:22:55;12.30;;;5.70;;
5900;SDS011;2976;49.764;9.796;2022-10-23T04:25:21;7.90;;;5.23;;
5900;SDS011;2976;49.764;9.796;2022-10-23T04:27:47;9.70;;;5.20;;
5900;SDS011;2976;49.764;9.796;2022-10-23T04:30:12;8.77;;;4.60;;
5900;SDS011;2976;49.764;9.796;2022-10-23T04:32:38;10.60;;;5.30;;
5900;SDS011;2976;49.764;9.796;2022-10-23T04:35:04;9.23;;;5.63;;
5900;SDS011;2976;49.764;9.796;2022-10-23T04:37:30;9.10;;;5.00;;
5900;SDS011;2976;49.764;9.796;2022-10-23T04:39:56;11.33;;;6.10;;
5900;SDS011;2976;49.764;9.796;2022-10-23T04:42:21;12.77;;;5.40;;
5900;SDS011;2976;49.764;9.796;2022-10-23T04:44:47;8.30;;;4.90;;
5900;SDS011;2976;49.764;9.796;2022-10-23T04:47:12;10.17;;;4.50;;
5900;SDS011;2976;49.764;9.796;2022-10-23T04:49:38;6.83;;;4.70;;
5900;SDS011;2976;49.764;9.796;2022-10-23T04:52:04;10.90;;;6.53;;
5900;SDS011;2976;49.764;9.796;2022-10-23T04:54:33;14.50;;;6.00;;
5900;SDS011;2976;49.764;9.796;2022-10-23T04:57:00;26.27;;;8.10;;
5900;SDS011;2976;49.764;9.796;2022-10-23T04:59:26;10.77;;;7.23;;
5900;SDS011;2976;49.764;9.796;2022-10-23T05:01:51;12.17;;;7.30;;
5900;SDS011;2976;49.764;9.796;2022-10-23T05:04:17;8.60;;;7.10;;
5900;SDS011;2976;49.764;9.796;2022-10-23T05:06:42;18.10;;;9.47;;
5900;SDS011;2976;49.764;9.796;2022-10-23T05:09:08;22.33;;;12.20;;
5900;SDS011;2976;49.764;9.796;2022-10-23T05:11:34;24.10;;;7.97;;
5900;SDS011;2976;49.764;9.796;2022-10-23T05:13:59;29.07;;;12.13;;
5900;SDS011;2976;49.764;9.796;2022-10-23T05:16:34;20.97;;;11.97;;
5900;SDS011;2976;49.764;9.796;2022-10-23T05:19:11;15.23;;;9.00;;
5900;SDS011;2976;49.764;9.796;2022-10-23T05:21:42;15.27;;;7.87;;
5900;SDS011;2976;49.764;9.796;2022-10-23T05:24:09;12.23;;;7.53;;
5900;SDS011;2976;49.764;9.796;2022-10-23T05:26:34;16.70;;;8.70;;
5900;SDS011;2976;49.764;9.796;2022-10-23T05:29:00;10.83;;;7.90;;
5900;SDS011;2976;49.764;9.796;2022-10-23T05:31:25;11.93;;;8.27;;
5900;SDS011;2976;49.764;9.796;2022-10-23T05:33:51;17.70;;;9.30;;
5900;SDS011;2976;49.764;9.796;2022-10-23T05:36:18;13.80;;;8.17;;
5900;SDS011;2976;49.764;9.796;2022-10-23T05:38:45;15.33;;;9.67;;
5900;SDS011;2976;49.764;9.796;2022-10-23T05:41:11;19.50;;;10.50;;
5900;SDS011;2976;49.764;9.796;2022-10-23T05:43:36;31.63;;;12.60;;
5900;SDS011;2976;49.764;9.796;2022-10-23T05:46:05;33.27;;;12.90;;
5900;SDS011;2976;49.764;9.796;2022-10-23T05:48:34;30.17;;;13.40;;
5900;SDS011;2976;49.764;9.796;2022-10-23T05:51:03;21.10;;;13.10;;
5900;SDS011;2976;49.764;9.796;2022-10-23T05:53:33;21.53;;;8.87;;
5900;SDS011;2976;49.764;9.796;2022-10-23T05:56:02;17.50;;;9.80;;
5900;SDS011;2976;49.764;9.796;2022-10-23T05:58:29;16.70;;;9.93;;
5900;SDS011;2976;49.764;9.796;2022-10-23T06:00:55;22.97;;;11.00;;
5900;SDS011;2976;49.764;9.796;2022-10-23T06:03:20;13.50;;;8.67;;
5900;SDS011;2976;49.764;9.796;2022-10-23T06:05:49;11.50;;;7.60;;
5900;SDS011;2976;49.764;9.796;2022-10-23T06:08:15;11.20;;;6.10;;
5900;SDS011;2976;49.764;9.796;2022-10-23T06:10:41;11.40;;;6.50;;
5900;SDS011;2976;49.764;9.796;2022-10-23T06:13:07;12.87;;;6.83;;
5900;SDS011;2976;49.764;9.796;2022-10-23T06:15:32;34.63;;;11.90;;
5900;SDS011;2976;49.764;9.796;2022-10-23T06:18:02;18.80;;;10.93;;
5900;SDS011;2976;49.764;9.796;2022-10-23T06:20:28;31.13;;;12.87;;
5900;SDS011;2976;49.764;9.796;2022-10-23T06:22:54;28.07;;;13.50;;
5900;SDS011;2976;49.764;9.796;2022-10-23T06:25:19;29.30;;;15.33;;
5900;SDS011;2976;49.764;9.796;2022-10-23T06:27:45;28.87;;;15.00;;
5900;SDS011;2976;49.764;9.796;2022-10-23T06:30:10;30.17;;;15.70;;
5900;SDS011;2976;49.764;9.796;2022-10-23T06:32:36;30.30;;;17.10;;
5900;SDS011;2976;49.764;9.796;2022-10-23T06:35:02;46.77;;;22.40;;
5900;SDS011;2976;49.764;9.796;2022-10-23T06:37:28;39.30;;;19.50;;
5900;SDS011;2976;49.764;9.796;2022-10-23T06:39:54;40.27;;;19.47;;
5900;SDS011;2976;49.764;9.796;2022-10-23T06:42:20;32.30;;;20.57;;
5900;SDS011;2976;49.764;9.796;2022-10-23T06:44:45;42.40;;;22.63;;
5900;SDS011;2976;49.764;9.796;2022-10-23T06:47:11;30.07;;;18.67;;
5900;SDS011;2976;49.764;9.796;2022-10-23T06:49:38;31.67;;;17.53;;
5900;SDS011;2976;49.764;9.796;2022-10-23T06:52:03;23.53;;;14.87;;
5900;SDS011;2976;49.764;9.796;2022-10-23T06:54:29;21.80;;;13.13;;
5900;SDS011;2976;49.764;9.796;2022-10-23T06:56:55;17.67;;;11.77;;
5900;SDS011;2976;49.764;9.796;2022-10-23T06:59:20;12.93;;;9.60;;
5900;SDS011;2976;49.764;9.796;2022-10-23T07:01:46;13.27;;;7.07;;
5900;SDS011;2976;49.764;9.796;2022-10-23T07:04:11;13.13;;;7.57;;
5900;SDS011;2976;49.764;9.796;2022-10-23T07:06:40;10.00;;;7.67;;
5900;SDS011;2976;49.764;9.796;2022-10-23T07:09:06;10.60;;;6.50;;
5900;SDS011;2976;49.764;9.796;2022-10-23T07:11:32;9.30;;;6.90;;
5900;SDS011;2976;49.764;9.796;2022-10-23T07:13:57;11.30;;;7.93;;
5900;SDS011;2976;49.764;9.796;2022-10-23T07:16:23;12.83;;;8.10;;
5900;SDS011;2976;49.764;9.796;2022-10-23T07:18:53;8.83;;;7.40;;
5900;SDS011;2976;49.764;9.796;2022-10-23T07:21:30;7.23;;;6.40;;
5900;SDS011;2976;49.764;9.796;2022-10-23T07:23:58;8.90;;;6.40;;
5900;SDS011;2976;49.764;9.796;2022-10-23T07:26:25;7.83;;;7.03;;
5900;SDS011;2976;49.764;9.796;2022-10-23T07:28:51;13.23;;;6.47;;
5900;SDS011;2976;49.764;9.796;2022-10-23T07:31:19;9.90;;;4.77;;
5900;SDS011;2976;49.764;9.796;2022-10-23T07:33:46;6.43;;;4.87;;
5900;SDS011;2976;49.764;9.796;2022-10-23T07:36:12;5.83;;;4.03;;
5900;SDS011;2976;49.764;9.796;2022-10-23T07:38:38;8.70;;;4.30;;
5900;SDS011;2976;49.764;9.796;2022-10-23T07:41:03;4.23;;;3.93;;
5900;SDS011;2976;49.764;9.796;2022-10-23T07:43:29;5.17;;;3.73;;
5900;SDS011;2976;49.764;9.796;2022-10-23T07:45:55;5.57;;;5.03;;
5900;SDS011;2976;49.764;9.796;2022-10-23T07:48:21;7.13;;;4.53;;
5900;SDS011;2976;49.764;9.796;2022-10-23T07:50:48;4.10;;;3.73;;
5900;SDS011;2976;49.764;9.796;2022-10-23T07:53:20;5.37;;;4.13;;
5900;SDS011;2976;49.764;9.796;2022-10-23T07:55:54;4.87;;;3.97;;
5900;SDS011;2976;49.764;9.796;2022-10-23T07:58:22;9.03;;;4.40;;
5900;SDS011;2976;49.764;9.796;2022-10-23T08:00:53;4.70;;;4.10;;
5900;SDS011;2976;49.764;9.796;2022-10-23T08:03:22;5.60;;;4.20;;
5900;SDS011;2976;49.764;9.796;2022-10-23T08:05:56;4.60;;;3.30;;
5900;SDS011;2976;49.764;9.796;2022-10-23T08:08:23;5.97;;;3.60;;
5900;SDS011;2976;49.764;9.796;2022-10-23T08:10:50;4.40;;;4.00;;
5900;SDS011;2976;49.764;9.796;2022-10-23T08:13:16;3.50;;;3.07;;
5900;SDS011;2976;49.764;9.796;2022-10-23T08:15:44;3.57;;;3.27;;
5900;SDS011;2976;49.764;9.796;2022-10-23T08:18:10;7.47;;;3.33;;
5900;SDS011;2976;49.764;9.796;2022-10-23T08:20:37;4.80;;;3.53;;
5900;SDS011;2976;49.764;9.796;2022-10-23T08:23:03;3.50;;;3.07;;
5900;SDS011;2976;49.764;9.796;2022-10-23T08:25:29;5.63;;;3.20;;
5900;SDS011;2976;49.764;9.796;2022-10-23T08:27:55;9.43;;;3.40;;
5900;SDS011;2976;49.764;9.796;2022-10-23T08:30:20;6.37;;;3.50;;
5900;SDS011;2976;49.764;9.796;2022-10-23T08:32:46;4.00;;;3.60;;
5900;SDS011;2976;49.764;9.796;2022-10-23T08:35:11;3.97;;;3.57;;
5900;SDS011;2976;49.764;9.796;2022-10-23T08:37:37;3.97;;;3.00;;
5900;SDS011;2976;49.764;9.796;2022-10-23T08:40:03;6.20;;;2.87;;
5900;SDS011;2976;49.764;9.796;2022-10-23T08:42:29;3.27;;;2.90;;
5900;SDS011;2976;49.764;9.796;2022-10-23T08:45:10;4.33;;;3.97;;
5900;SDS011;2976;49.764;9.796;2022-10-23T08:47:52;2.90;;;2.70;;
5900;SDS011;2976;49.764;9.796;2022-10-23T08:50:33;6.83;;;3.00;;
5900;SDS011;2976;49.764;9.796;2022-10-23T08:55:34;7.20;;;3.20;;
5900;SDS011;2976;49.764;9.796;2022-10-23T08:58:04;5.90;;;4.30;;
5900;SDS011;2976;49.764;9.796;2022-10-23T09:00:34;4.33;;;3.77;;
5900;SDS011;2976;49.764;9.796;2022-10-23T09:03:01;4.33;;;3.83;;
5900;SDS011;2976;49.764;9.796;2022-10-23T09:11:00;3.20;;;3.00;;
5900;SDS011;2976;49.764;9.796;2022-10-23T09:18:52;5.03;;;3.90;;
5900;SDS011;2976;49.764;9.796;2022-10-23T09:21:19;2.63;;;2.43;;
5900;SDS011;2976;49.764;9.796;2022-10-23T09:23:50;4.50;;;3.30;;
5900;SDS011;2976;49.764;9.796;2022-10-23T09:26:16;9.27;;;2.40;;
5900;SDS011;2976;49.764;9.796;2022-10-23T09:28:54;6.50;;;2.60;;
5900;SDS011;2976;49.764;9.796;2022-10-23T09:31:26;5.13;;;2.50;;
5900;SDS011;2976;49.764;9.796;2022-10-23T09:33:52;2.20;;;2.00;;
5900;SDS011;2976;49.764;9.796;2022-10-23T09:36:23;5.67;;;2.90;;
5900;SDS011;2976;49.764;9.796;2022-10-23T09:38:52;5.63;;;1.70;;
5900;SDS011;2976;49.764;9.796;2022-10-23T09:41:23;3.50;;;2.43;;
5900;SDS011;2976;49.764;9.796;2022-10-23T09:44:00;1.93;;;1.83;;
5900;SDS011;2976;49.764;9.796;2022-10-23T09:46:50;3.70;;;2.20;;
5900;SDS011;2976;49.764;9.796;2022-10-23T09:49:24;8.73;;;2.20;;
5900;SDS011;2976;49.764;9.796;2022-10-23T09:52:01;2.33;;;1.70;;
5900;SDS011;2976;49.764;9.796;2022-10-23T09:59:49;5.37;;;1.73;;
5900;SDS011;2976;49.764;9.796;2022-10-23T10:02:42;2.50;;;1.50;;
5900;SDS011;2976;49.764;9.796;2022-10-23T10:08:02;2.63;;;1.20;;
5900;SDS011;2976;49.764;9.796;2022-10-23T10:10:33;1.50;;;1.40;;
5900;SDS011;2976;49.764;9.796;2022-10-23T10:13:06;2.70;;;1.70;;
5900;SDS011;2976;49.764;9.796;2022-10-23T10:15:54;1.40;;;1.30;;
5900;SDS011;2976;49.764;9.796;2022-10-23T10:21:05;7.70;;;2.30;;
5900;SDS011;2976;49.764;9.796;2022-10-23T10:31:31;1.17;;;1.17;;
5900;SDS011;2976;49.764;9.796;2022-10-23T10:34:22;2.93;;;1.30;;
5900;SDS011;2976;49.764;9.796;2022-10-23T10:36:54;2.40;;;0.77;;
5900;SDS011;2976;49.764;9.796;2022-10-23T10:39:26;0.83;;;0.83;;
5900;SDS011;2976;49.764;9.796;2022-10-23T10:44:56;1.83;;;1.10;;
5900;SDS011;2976;49.764;9.796;2022-10-23T10:47:37;1.40;;;1.30;;
5900;SDS011;2976;49.764;9.796;2022-10-23T10:50:29;1.10;;;1.00;;
5900;SDS011;2976;49.764;9.796;2022-10-23T10:53:26;1.23;;;1.07;;
5900;SDS011;2976;49.764;9.796;2022-10-23T10:56:13;10.03;;;1.03;;
5900;SDS011;2976;49.764;9.796;2022-10-23T10:58:53;1.07;;;0.97;;
5900;SDS011;2976;49.764;9.796;2022-10-23T11:01:39;2.50;;;1.17;;
5900;SDS011;2976;49.764;9.796;2022-10-23T11:06:52;1.40;;;1.30;;
5900;SDS011;2976;49.764;9.796;2022-10-23T11:09:21;4.03;;;1.17;;
5900;SDS011;2976;49.764;9.796;2022-10-23T11:11:53;1.47;;;1.33;;
5900;SDS011;2976;49.764;9.796;2022-10-23T11:14:23;3.33;;;1.30;;
5900;SDS011;2976;49.764;9.796;2022-10-23T11:16:56;1.40;;;1.30;;
5900;SDS011;2976;49.764;9.796;2022-10-23T11:20:21;3.70;;;1.37;;
5900;SDS011;2976;49.764;9.796;2022-10-23T11:28:12;1.50;;;1.40;;
5900;SDS011;2976;49.764;9.796;2022-10-23T11:31:05;1.77;;;1.43;;
5900;SDS011;2976;49.764;9.796;2022-10-23T11:33:47;1.53;;;1.13;;
5900;SDS011;2976;49.764;9.796;2022-10-23T11:36:42;1.27;;;1.17;;
5900;SDS011;2976;49.764;9.796;2022-10-23T11:39:18;4.07;;;1.03;;
5900;SDS011;2976;49.764;9.796;2022-10-23T11:41:51;3.83;;;1.30;;
5900;SDS011;2976;49.764;9.796;2022-10-23T11:47:04;2.67;;;1.30;;
5900;SDS011;2976;49.764;9.796;2022-10-23T11:49:50;1.83;;;1.70;;
5900;SDS011;2976;49.764;9.796;2022-10-23T11:52:23;1.03;;;1.03;;
5900;SDS011;2976;49.764;9.796;2022-10-23T11:54:59;1.10;;;1.07;;
5900;SDS011;2976;49.764;9.796;2022-10-23T11:57:39;1.37;;;1.10;;
5900;SDS011;2976;49.764;9.796;2022-10-23T12:00:17;1.67;;;1.57;;
5900;SDS011;2976;49.764;9.796;2022-10-23T12:02:48;2.80;;;1.20;;
5900;SDS011;2976;49.764;9.796;2022-10-23T12:05:26;1.47;;;1.30;;
5900;SDS011;2976;49.764;9.796;2022-10-23T12:08:04;1.70;;;1.50;;
5900;SDS011;2976;49.764;9.796;2022-10-23T12:10:43;1.40;;;1.30;;
5900;SDS011;2976;49.764;9.796;2022-10-23T12:13:28;1.57;;;1.47;;
5900;SDS011;2976;49.764;9.796;2022-10-23T12:15:54;3.60;;;1.20;;
5900;SDS011;2976;49.764;9.796;2022-10-23T12:18:19;1.70;;;1.60;;
5900;SDS011;2976;49.764;9.796;2022-10-23T12:20:53;1.30;;;1.20;;
5900;SDS011;2976;49.764;9.796;2022-10-23T12:37:36;2.00;;;1.27;;
5900;SDS011;2976;49.764;9.796;2022-10-23T12:40:06;1.57;;;1.47;;
5900;SDS011;2976;49.764;9.796;2022-10-23T12:42:33;2.23;;;1.43;;
5900;SDS011;2976;49.764;9.796;2022-10-23T12:45:22;2.47;;;0.97;;
5900;SDS011;2976;49.764;9.796;2022-10-23T12:47:51;3.30;;;0.87;;
5900;SDS011;2976;49.764;9.796;2022-10-23T12:50:27;2.43;;;1.17;;
5900;SDS011;2976;49.764;9.796;2022-10-23T12:52:56;1.13;;;1.03;;
5900;SDS011;2976;49.764;9.796;2022-10-23T12:55:28;0.70;;;0.70;;
5900;SDS011;2976;49.764;9.796;2022-10-23T12:57:55;1.50;;;0.73;;
5900;SDS011;2976;49.764;9.796;2022-10-23T13:00:22;0.90;;;0.90;;
5900;SDS011;2976;49.764;9.796;2022-10-23T13:02:58;2.40;;;1.20;;
5900;SDS011;2976;49.764;9.796;2022-10-23T13:05:26;1.70;;;1.60;;
5900;SDS011;2976;49.764;9.796;2022-10-23T13:07:53;2.17;;;1.20;;
5900;SDS011;2976;49.764;9.796;2022-10-23T13:10:20;1.00;;;0.90;;
5900;SDS011;2976;49.764;9.796;2022-10-23T13:12:54;0.90;;;0.90;;
5900;SDS011;2976;49.764;9.796;2022-10-23T13:15:23;2.07;;;0.97;;
5900;SDS011;2976;49.764;9.796;2022-10-23T13:18:00;2.53;;;1.00;;
5900;SDS011;2976;49.764;9.796;2022-10-23T13:20:31;2.93;;;0.80;;
5900;SDS011;2976;49.764;9.796;2022-10-23T13:25:55;1.27;;;0.70;;
5900;SDS011;2976;49.764;9.796;2022-10-23T13:28:24;5.07;;;0.90;;
5900;SDS011;2976;49.764;9.796;2022-10-23T13:31:05;1.20;;;1.10;;
5900;SDS011;2976;49.764;9.796;2022-10-23T13:38:39;1.27;;;1.17;;
5900;SDS011;2976;49.764;9.796;2022-10-23T13:41:14;3.23;;;1.10;;
5900;SDS011;2976;49.764;9.796;2022-10-23T13:43:41;1.13;;;1.03;;
5900;SDS011;2976;49.764;9.796;2022-10-23T13:46:14;1.17;;;1.07;;
5900;SDS011;2976;49.764;9.796;2022-10-23T13:48:45;3.53;;;1.10;;
5900;SDS011;2976;49.764;9.796;2022-10-23T13:51:13;2.00;;;0.83;;
5900;SDS011;2976;49.764;9.796;2022-10-23T13:53:40;1.50;;;1.40;;
5900;SDS011;2976;49.764;9.796;2022-10-23T13:56:07;2.00;;;0.73;;
5900;SDS011;2976;49.764;9.796;2022-10-23T13:58:35;0.83;;;0.83;;
5900;SDS011;2976;49.764;9.796;2022-10-23T14:01:01;6.93;;;1.20;;
5900;SDS011;2976;49.764;9.796;2022-10-23T14:03:26;2.83;;;1.50;;
5900;SDS011;2976;49.764;9.796;2022-10-23T14:05:52;11.73;;;1.20;;
5900;SDS011;2976;49.764;9.796;2022-10-23T14:08:18;1.37;;;0.90;;
5900;SDS011;2976;49.764;9.796;2022-10-23T14:10:44;1.20;;;1.00;;
5900;SDS011;2976;49.764;9.796;2022-10-23T14:13:10;0.90;;;0.90;;
5900;SDS011;2976;49.764;9.796;2022-10-23T14:15:35;2.00;;;0.90;;
5900;SDS011;2976;49.764;9.796;2022-10-23T14:18:01;0.70;;;0.70;;
5900;SDS011;2976;49.764;9.796;2022-10-23T14:20:27;2.20;;;1.10;;
5900;SDS011;2976;49.764;9.796;2022-10-23T14:22:52;2.93;;;1.03;;
5900;SDS011;2976;49.764;9.796;2022-10-23T14:25:18;2.10;;;1.30;;
5900;SDS011;2976;49.764;9.796;2022-10-23T14:27:43;1.03;;;1.00;;
5900;SDS011;2976;49.764;9.796;2022-10-23T14:30:09;3.17;;;0.80;;
5900;SDS011;2976;49.764;9.796;2022-10-23T14:32:35;1.00;;;1.00;;
5900;SDS011;2976;49.764;9.796;2022-10-23T14:35:01;1.53;;;1.43;;
5900;SDS011;2976;49.764;9.796;2022-10-23T14:37:31;0.90;;;0.90;;
5900;SDS011;2976;49.764;9.796;2022-10-23T14:39:57;1.30;;;1.20;;
5900;SDS011;2976;49.764;9.796;2022-10-23T14:42:23;1.00;;;0.90;;
5900;SDS011;2976;49.764;9.796;2022-10-23T14:44:49;0.90;;;0.90;;
5900;SDS011;2976;49.764;9.796;2022-10-23T14:47:15;1.00;;;0.80;;
5900;SDS011;2976;49.764;9.796;2022-10-23T14:49:43;1.37;;;1.10;;
5900;SDS011;2976;49.764;9.796;2022-10-23T14:52:13;3.80;;;1.07;;
5900;SDS011;2976;49.764;9.796;2022-10-23T14:54:39;3.17;;;2.40;;
5900;SDS011;2976;49.764;9.796;2022-10-23T14:57:04;8.10;;;2.17;;
5900;SDS011;2976;49.764;9.796;2022-10-23T14:59:30;1.47;;;1.37;;
5900;SDS011;2976;49.764;9.796;2022-10-23T15:01:55;2.00;;;1.57;;
5900;SDS011;2976;49.764;9.796;2022-10-23T15:04:21;2.30;;;1.63;;
5900;SDS011;2976;49.764;9.796;2022-10-23T15:06:47;7.70;;;1.70;;
5900;SDS011;2976;49.764;9.796;2022-10-23T15:09:15;0.80;;;0.80;;
5900;SDS011;2976;49.764;9.796;2022-10-23T15:11:43;1.23;;;1.00;;
5900;SDS011;2976;49.764;9.796;2022-10-23T15:14:09;0.90;;;0.90;;
5900;SDS011;2976;49.764;9.796;2022-10-23T15:16:35;7.30;;;1.70;;
5900;SDS011;2976;49.764;9.796;2022-10-23T15:19:05;4.03;;;3.17;;
5900;SDS011;2976;49.764;9.796;2022-10-23T15:21:32;6.73;;;2.50;;
5900;SDS011;2976;49.764;9.796;2022-10-23T15:23:59;7.37;;;2.20;;
5900;SDS011;2976;49.764;9.796;2022-10-23T15:26:24;1.10;;;1.10;;
5900;SDS011;2976;49.764;9.796;2022-10-23T15:28:54;1.97;;;1.50;;
5900;SDS011;2976;49.764;9.796;2022-10-23T15:31:23;1.30;;;1.23;;
5900;SDS011;2976;49.764;9.796;2022-10-23T15:34:26;1.40;;;1.40;;
5900;SDS011;2976;49.764;9.796;2022-10-23T15:36:53;1.50;;;1.40;;
5900;SDS011;2976;49.764;9.796;2022-10-23T15:39:20;1.23;;;1.10;;
5900;SDS011;2976;49.764;9.796;2022-10-23T15:41:52;2.67;;;1.50;;
5900;SDS011;2976;49.764;9.796;2022-10-23T15:44:20;1.33;;;1.30;;
5900;SDS011;2976;49.764;9.796;2022-10-23T15:46:47;1.33;;;1.23;;
5900;SDS011;2976;49.764;9.796;2022-10-23T15:49:13;3.90;;;1.70;;
5900;SDS011;2976;49.764;9.796;2022-10-23T15:51:39;2.60;;;1.60;;
5900;SDS011;2976;49.764;9.796;2022-10-23T15:54:06;3.80;;;2.40;;
5900;SDS011;2976;49.764;9.796;2022-10-23T15:56:34;4.50;;;3.20;;
5900;SDS011;2976;49.764;9.796;2022-10-23T15:59:00;5.23;;;3.70;;
5900;SDS011;2976;49.764;9.796;2022-10-23T16:01:26;6.00;;;4.30;;
5900;SDS011;2976;49.764;9.796;2022-10-23T16:03:52;7.00;;;3.30;;
5900;SDS011;2976;49.764;9.796;2022-10-23T16:06:18;5.10;;;3.13;;
5900;SDS011;2976;49.764;9.796;2022-10-23T16:08:45;4.20;;;2.77;;
5900;SDS011;2976;49.764;9.796;2022-10-23T16:11:20;7.73;;;2.50;;
5900;SDS011;2976;49.764;9.796;2022-10-23T16:13:48;3.07;;;2.70;;
5900;SDS011;2976;49.764;9.796;2022-10-23T16:16:14;5.90;;;3.10;;
5900;SDS011;2976;49.764;9.796;2022-10-23T16:18:40;2.87;;;2.27;;
5900;SDS011;2976;49.764;9.796;2022-10-23T16:21:11;3.43;;;2.20;;
5900;SDS011;2976;49.764;9.796;2022-10-23T16:23:50;3.40;;;2.20;;
5900;SDS011;2976;49.764;9.796;2022-10-23T16:26:17;17.93;;;3.30;;
5900;SDS011;2976;49.764;9.796;2022-10-23T16:28:43;15.97;;;6.57;;
5900;SDS011;2976;49.764;9.796;2022-10-23T16:31:10;2.37;;;2.07;;
5900;SDS011;2976;49.764;9.796;2022-10-23T16:33:37;7.90;;;3.10;;
5900;SDS011;2976;49.764;9.796;2022-10-23T16:36:07;4.03;;;2.77;;
5900;SDS011;2976;49.764;9.796;2022-10-23T16:38:33;4.20;;;2.07;;
5900;SDS011;2976;49.764;9.796;2022-10-23T16:41:00;3.63;;;2.17;;
5900;SDS011;2976;49.764;9.796;2022-10-23T16:43:25;3.50;;;1.97;;
5900;SDS011;2976;49.764;9.796;2022-10-23T16:46:01;7.00;;;2.43;;
5900;SDS011;2976;49.764;9.796;2022-10-23T16:48:32;2.00;;;1.80;;
5900;SDS011;2976;49.764;9.796;2022-10-23T16:50:59;6.93;;;2.80;;
5900;SDS011;2976;49.764;9.796;2022-10-23T16:53:28;2.43;;;1.70;;
5900;SDS011;2976;49.764;9.796;2022-10-23T16:55:55;2.20;;;2.00;;
5900;SDS011;2976;49.764;9.796;2022-10-23T16:58:21;11.40;;;2.43;;